Time;durP1;ratioP1;P1;durP2;ratioP2;P2;SDS_P1;SDS_P2;PMS_P1;PMS_P2;Temp;Humidity;BMP_temperature;BMP_pressure;BME280_temperature;BME280_humidity;BME280_pressure;Samples;Min_cycle;Max_cycle;Signal;HPM_P1;HPM_P2
2022/07/27 00:02:10;;;;;;;8.68;4.17;;;;;;;21.71;46.19;98497.73;1719359;82;21010;-81
2022/07/27 00:04:37;;;;;;;7.00;4.00;;;;;;;21.72;45.54;98499.39;1735369;82;21014;-82
2022/07/27 00:07:03;;;;;;;6.22;3.83;;;;;;;21.71;45.07;98500.37;1728500;82;21002;-82
2022/07/27 00:09:30;;;;;;;9.35;4.40;;;;;;;21.72;45.62;98506.00;1710186;83;21709;-82
2022/07/27 00:11:56;;;;;;;8.08;3.75;;;;;;;21.73;44.35;98503.23;1714305;82;21050;-80
2022/07/27 00:14:23;;;;;;;11.63;3.90;;;;;;;21.70;45.13;98513.22;1738901;82;21022;-81
2022/07/27 00:16:49;;;;;;;10.88;4.12;;;;;;;21.69;45.03;98514.20;1726099;82;21035;-81
2022/07/27 00:19:16;;;;;;;10.75;4.12;;;;;;;21.68;44.17;98517.80;1732187;82;21545;-80
2022/07/27 00:21:42;;;;;;;9.80;3.67;;;;;;;21.64;45.59;98519.35;1733186;82;21071;-82
2022/07/27 00:24:09;;;;;;;9.13;4.40;;;;;;;21.68;45.06;98527.89;1716900;82;21577;-81
2022/07/27 00:26:36;;;;;;;13.20;4.17;;;;;;;21.69;44.35;98533.55;1718752;82;20984;-81
2022/07/27 00:29:03;;;;;;;10.45;4.10;;;;;;;21.69;45.36;98538.02;1730160;82;21049;-81
2022/07/27 00:31:29;;;;;;;12.00;5.17;;;;;;;21.69;45.40;98542.81;1740029;82;21003;-80
2022/07/27 00:33:56;;;;;;;9.55;4.17;;;;;;;21.69;45.82;98545.45;1706922;82;20956;-81
2022/07/27 00:36:22;;;;;;;9.40;4.10;;;;;;;21.70;45.43;98539.67;1725679;83;21010;-81
2022/07/27 00:38:49;;;;;;;9.05;4.10;;;;;;;21.71;46.65;98529.47;1728449;82;21672;-82
2022/07/27 00:41:16;;;;;;;9.83;4.30;;;;;;;21.72;46.80;98534.61;1731197;82;21074;-81
2022/07/27 00:43:51;;;;;;;8.53;4.20;;;;;;;21.74;46.54;98541.11;1717202;82;20986;-82
2022/07/27 00:46:18;;;;;;;10.58;4.40;;;;;;;21.78;46.42;98526.67;1717873;83;21027;-81
2022/07/27 00:48:45;;;;;;;9.83;4.37;;;;;;;21.79;45.58;98553.02;1726240;82;21054;-80
2022/07/27 00:51:13;;;;;;;8.55;4.58;;;;;;;21.79;46.19;98553.50;1730334;82;21568;-81
2022/07/27 00:53:40;;;;;;;8.20;4.33;;;;;;;21.81;46.24;98555.55;1713813;82;21034;-81
2022/07/27 00:56:07;;;;;;;8.73;3.95;;;;;;;21.84;46.53;98548.66;1734582;82;21598;-81
2022/07/27 00:58:37;;;;;;;9.13;4.33;;;;;;;21.88;46.67;98550.09;1719812;82;21049;-81
2022/07/27 01:01:04;;;;;;;8.08;4.20;;;;;;;21.90;46.64;98550.81;1730908;82;21002;-82
2022/07/27 01:03:31;;;;;;;7.12;4.22;;;;;;;21.92;46.63;98548.05;1735282;82;21000;-81
2022/07/27 01:05:58;;;;;;;11.33;4.85;;;;;;;21.91;46.41;98547.22;1717904;82;21024;-82
2022/07/27 01:08:25;;;;;;;10.03;4.12;;;;;;;21.92;46.46;98551.53;1686451;84;21043;-81
2022/07/27 01:10:55;;;;;;;9.88;4.60;;;;;;;21.93;47.43;98551.91;1719506;82;21573;-81
2022/07/27 01:13:25;;;;;;;10.58;4.62;;;;;;;21.87;46.58;98544.95;1709069;82;21481;-81
2022/07/27 01:15:52;;;;;;;8.48;4.00;;;;;;;21.86;46.88;98548.06;1720596;82;21066;-81
2022/07/27 01:18:30;;;;;;;10.60;4.28;;;;;;;21.85;46.80;98559.63;1729809;82;21085;-82
2022/07/27 01:20:59;;;;;;;9.58;4.30;;;;;;;21.88;46.53;98560.69;1715316;82;21506;-81
2022/07/27 01:23:27;;;;;;;13.10;4.53;;;;;;;21.92;47.10;98562.12;1723806;82;21597;-81
2022/07/27 01:25:54;;;;;;;10.15;4.75;;;;;;;21.97;46.56;98561.77;1716213;82;21641;-82
2022/07/27 01:28:21;;;;;;;13.75;4.65;;;;;;;21.98;46.57;98556.33;1715899;82;21034;-81
2022/07/27 01:30:48;;;;;;;8.28;4.60;;;;;;;21.99;45.97;98553.22;1714214;82;21066;-81
2022/07/27 01:33:15;;;;;;;9.30;5.37;;;;;;;21.97;46.66;98535.30;1733980;82;21004;-82
2022/07/27 01:35:41;;;;;;;10.72;4.47;;;;;;;21.96;46.84;98526.50;1734029;82;21559;-81
2022/07/27 01:38:11;;;;;;;7.50;4.20;;;;;;;21.99;46.91;98532.05;1729790;82;21037;-81
2022/07/27 01:40:38;;;;;;;11.18;4.50;;;;;;;22.03;47.21;98539.61;1738378;82;21578;-81
2022/07/27 01:43:05;;;;;;;10.30;4.70;;;;;;;22.07;47.21;98546.82;1723007;82;21057;-83
2022/07/27 01:45:32;;;;;;;11.88;4.20;;;;;;;22.09;46.27;98534.80;1719744;82;21064;-81
2022/07/27 01:47:59;;;;;;;13.25;4.67;;;;;;;22.12;46.92;98547.77;1733628;82;21054;-81
2022/07/27 01:50:25;;;;;;;11.48;4.72;;;;;;;22.16;46.62;98536.82;1737485;82;21043;-81
2022/07/27 01:52:52;;;;;;;13.48;4.55;;;;;;;22.20;48.68;98544.00;1722241;82;21522;-81
2022/07/27 01:55:19;;;;;;;10.08;4.67;;;;;;;22.23;47.83;98533.17;1708584;83;21082;-82
2022/07/27 01:57:46;;;;;;;15.78;4.97;;;;;;;22.22;48.61;98536.31;1722233;82;21530;-81
2022/07/27 02:00:13;;;;;;;9.33;5.00;;;;;;;22.20;50.64;98541.35;1713467;82;21023;-82
2022/07/27 02:02:40;;;;;;;11.78;5.33;;;;;;;22.18;54.27;98526.08;1715899;82;21039;-82
2022/07/27 02:05:11;;;;;;;7.67;5.10;;;;;;;22.18;52.46;98517.67;1711618;82;21007;-81
2022/07/27 02:07:41;;;;;;;13.93;5.33;;;;;;;22.18;53.17;98512.84;1691481;84;21119;-82
2022/07/27 02:10:09;;;;;;;10.30;5.60;;;;;;;22.19;52.77;98514.53;1697250;83;21106;-83
2022/07/27 02:12:36;;;;;;;10.58;4.95;;;;;;;22.17;51.47;98515.98;1720168;82;22326;-82
2022/07/27 02:15:13;;;;;;;15.13;5.92;;;;;;;22.14;52.14;98506.95;1722404;83;21090;-83
2022/07/27 02:17:41;;;;;;;10.05;5.08;;;;;;;22.13;55.74;98515.88;1699968;83;20968;-83
2022/07/27 02:20:09;;;;;;;11.73;5.30;;;;;;;22.11;52.62;98526.24;1726191;82;20999;-81
2022/07/27 02:22:36;;;;;;;12.15;5.08;;;;;;;22.01;53.12;98526.15;1703987;84;21059;-81
2022/07/27 02:25:06;;;;;;;14.38;5.17;;;;;;;21.97;52.71;98527.36;1722208;83;21088;-82
2022/07/27 02:27:32;;;;;;;11.08;5.28;;;;;;;21.90;52.60;98527.48;1689056;84;21004;-81
2022/07/27 02:29:59;;;;;;;9.05;5.15;;;;;;;21.76;54.46;98524.14;1712229;83;21054;-81
2022/07/27 02:32:26;;;;;;;15.95;5.87;;;;;;;21.70;54.80;98528.61;1722256;83;20989;-82
2022/07/27 02:34:53;;;;;;;13.00;5.10;;;;;;;21.65;54.31;98527.66;1709879;83;21006;-81
2022/07/27 02:37:20;;;;;;;10.40;5.25;;;;;;;21.63;54.19;98535.37;1719845;83;21007;-82
2022/07/27 02:39:46;;;;;;;9.55;6.00;;;;;;;21.55;54.36;98527.20;1713004;83;21022;-81
2022/07/27 02:42:12;;;;;;;11.20;5.72;;;;;;;21.49;56.25;98528.98;1725107;83;21062;-82
2022/07/27 02:44:39;;;;;;;9.88;5.47;;;;;;;21.45;57.43;98531.05;1709922;83;21026;-82
2022/07/27 02:47:06;;;;;;;9.03;5.70;;;;;;;21.39;58.16;98529.70;1732517;83;21061;-81
2022/07/27 02:49:33;;;;;;;9.55;5.33;;;;;;;21.37;58.13;98526.83;1728769;82;21014;-81
2022/07/27 02:51:59;;;;;;;8.93;5.45;;;;;;;21.35;59.08;98528.75;1733480;82;21011;-83
2022/07/27 02:54:28;;;;;;;9.53;5.70;;;;;;;21.33;59.12;98530.64;1697012;83;20987;-82
2022/07/27 02:56:55;;;;;;;12.10;5.95;;;;;;;21.32;61.70;98528.97;1730126;82;21526;-82
2022/07/27 02:59:22;;;;;;;17.55;6.47;;;;;;;21.30;58.05;98532.22;1732441;83;21007;-81
2022/07/27 03:01:49;;;;;;;11.80;5.85;;;;;;;21.30;60.26;98530.90;1713149;82;21531;-81
2022/07/27 03:04:16;;;;;;;11.57;5.17;;;;;;;21.30;60.66;98534.38;1721720;83;20999;-82
2022/07/27 03:06:42;;;;;;;13.88;5.67;;;;;;;21.32;61.25;98532.45;1722018;82;21017;-82
2022/07/27 03:09:10;;;;;;;12.50;6.22;;;;;;;21.33;61.41;98530.64;1716787;83;21495;-80
2022/07/27 03:11:37;;;;;;;12.07;7.08;;;;;;;21.37;59.49;98538.72;1715916;83;21125;-81
2022/07/27 03:14:04;;;;;;;10.93;6.17;;;;;;;21.36;59.72;98547.11;1732917;82;21559;-81
2022/07/27 03:16:30;;;;;;;7.90;5.28;;;;;;;21.33;60.58;98540.76;1727524;82;21038;-81
2022/07/27 03:18:58;;;;;;;15.10;6.65;;;;;;;21.33;61.38;98545.18;1714563;83;22248;-81
2022/07/27 03:21:24;;;;;;;15.75;6.40;;;;;;;21.32;60.50;98548.80;1715863;82;21006;-83
2022/07/27 03:23:51;;;;;;;15.63;6.42;;;;;;;21.30;61.08;98553.37;1723402;82;21019;-82
2022/07/27 03:26:18;;;;;;;16.23;6.25;;;;;;;21.29;60.31;98558.28;1706454;83;21022;-81
2022/07/27 03:28:45;;;;;;;11.80;6.17;;;;;;;21.23;61.60;98560.95;1723844;82;21621;-81
2022/07/27 03:31:12;;;;;;;9.00;6.05;;;;;;;21.16;62.23;98558.41;1687128;83;20994;-82
2022/07/27 03:33:38;;;;;;;14.63;6.75;;;;;;;21.15;60.06;98563.31;1725083;83;21035;-81
2022/07/27 03:36:06;;;;;;;12.50;5.90;;;;;;;21.08;61.81;98566.09;1716632;83;21030;-82
2022/07/27 03:38:32;;;;;;;14.15;6.87;;;;;;;21.05;60.31;98566.69;1703704;83;21591;-81
2022/07/27 03:40:59;;;;;;;9.48;6.10;;;;;;;21.01;61.81;98561.77;1704114;84;21012;-81
2022/07/27 03:43:26;;;;;;;12.28;6.45;;;;;;;20.96;61.48;98570.51;1722299;83;21491;-82
2022/07/27 03:45:52;;;;;;;13.35;5.95;;;;;;;20.91;61.30;98580.11;1723647;82;21062;-82
2022/07/27 03:48:19;;;;;;;9.93;6.10;;;;;;;20.82;63.54;98574.19;1698550;83;21130;-82
2022/07/27 03:50:45;;;;;;;12.25;5.75;;;;;;;20.79;62.92;98579.23;1732342;83;21021;-82
2022/07/27 03:53:12;;;;;;;11.05;6.00;;;;;;;20.73;64.20;98584.98;1724349;83;21023;-82
2022/07/27 03:55:38;;;;;;;12.05;6.12;;;;;;;20.74;63.13;98578.73;1704860;84;20972;-81
2022/07/27 03:58:05;;;;;;;10.25;5.75;;;;;;;20.72;65.33;98581.13;1682677;83;21101;-81
2022/07/27 04:00:31;;;;;;;13.40;5.95;;;;;;;20.77;63.04;98579.83;1726114;83;21457;-82
2022/07/27 04:02:58;;;;;;;13.80;6.10;;;;;;;20.77;63.27;98581.16;1712636;82;21062;-82
2022/07/27 04:05:25;;;;;;;11.80;6.03;;;;;;;20.80;63.47;98586.19;1723391;83;20983;-81
2022/07/27 04:07:51;;;;;;;12.07;6.33;;;;;;;20.82;63.63;98588.72;1716018;83;21007;-82
2022/07/27 04:10:18;;;;;;;18.98;7.35;;;;;;;20.82;63.48;98589.55;1711401;83;21031;-80
2022/07/27 04:12:44;;;;;;;15.53;6.87;;;;;;;20.81;64.54;98591.85;1703339;84;21054;-81
2022/07/27 04:15:11;;;;;;;16.45;7.03;;;;;;;20.84;63.80;98590.28;1717586;83;21479;-81
2022/07/27 04:17:37;;;;;;;15.13;7.60;;;;;;;20.89;62.47;98597.02;1729696;83;20971;-82
2022/07/27 04:20:06;;;;;;;12.55;7.00;;;;;;;20.91;62.48;98605.67;1718892;83;21445;-82
2022/07/27 04:22:33;;;;;;;12.47;6.58;;;;;;;20.94;63.01;98600.17;1710767;83;21575;-82
2022/07/27 04:25:00;;;;;;;10.68;6.15;;;;;;;20.99;61.78;98601.97;1719402;83;20987;-82
2022/07/27 04:27:26;;;;;;;13.58;6.22;;;;;;;21.00;62.02;98605.82;1732220;83;21530;-82
2022/07/27 04:29:53;;;;;;;16.27;7.25;;;;;;;21.04;62.18;98609.91;1713770;83;20983;-81
2022/07/27 04:32:20;;;;;;;14.65;7.60;;;;;;;21.08;62.43;98601.77;1720318;83;21067;-82
2022/07/27 04:34:46;;;;;;;18.62;6.67;;;;;;;21.12;63.39;98609.33;1717886;83;21026;-82
2022/07/27 04:37:13;;;;;;;12.98;6.40;;;;;;;21.18;61.88;98612.83;1731748;83;21003;-81
2022/07/27 04:39:40;;;;;;;15.85;5.70;;;;;;;21.26;61.60;98618.85;1735339;83;20992;-82
2022/07/27 04:42:07;;;;;;;14.87;6.92;;;;;;;21.32;61.93;98618.86;1695000;84;21026;-80
2022/07/27 04:44:34;;;;;;;14.43;5.90;;;;;;;21.40;61.49;98626.55;1733214;82;20998;-82
2022/07/27 04:47:00;;;;;;;12.73;6.65;;;;;;;21.51;61.78;98626.27;1733403;82;21562;-81
2022/07/27 04:49:27;;;;;;;13.95;5.85;;;;;;;21.60;62.02;98623.72;1735705;81;20977;-82
2022/07/27 04:51:54;;;;;;;17.42;6.67;;;;;;;21.73;62.75;98628.07;1731063;83;22148;-82
2022/07/27 04:54:20;;;;;;;10.82;6.42;;;;;;;21.84;61.48;98629.37;1713532;82;20996;-82
2022/07/27 04:56:47;;;;;;;15.05;6.55;;;;;;;21.92;61.35;98632.73;1730429;83;21027;-81
2022/07/27 04:59:14;;;;;;;17.60;6.95;;;;;;;22.02;60.90;98637.20;1733342;83;21023;-81
2022/07/27 05:01:40;;;;;;;15.35;6.83;;;;;;;22.14;61.24;98641.12;1706694;83;21550;-81
2022/07/27 05:04:07;;;;;;;13.72;6.55;;;;;;;22.25;61.07;98641.15;1732678;83;21059;-81
2022/07/27 05:06:34;;;;;;;17.02;7.40;;;;;;;22.36;60.67;98639.81;1708841;82;20962;-82
2022/07/27 05:09:00;;;;;;;14.83;6.55;;;;;;;22.46;61.27;98646.50;1727787;83;21054;-80
2022/07/27 05:11:27;;;;;;;10.53;6.62;;;;;;;22.53;61.53;98649.52;1729118;82;21574;-81
2022/07/27 05:13:54;;;;;;;15.13;6.17;;;;;;;22.63;62.22;98647.30;1721043;82;21156;-82
2022/07/27 05:16:20;;;;;;;12.53;6.87;;;;;;;22.73;60.65;98655.83;1720482;82;21515;-82
2022/07/27 05:18:47;;;;;;;16.97;7.12;;;;;;;22.80;60.74;98660.50;1726337;82;21066;-82
2022/07/27 05:21:14;;;;;;;12.43;6.40;;;;;;;22.88;61.01;98663.84;1720411;83;21007;-81
2022/07/27 05:23:40;;;;;;;13.28;6.78;;;;;;;22.98;61.21;98654.64;1726679;82;21067;-81
2022/07/27 05:26:07;;;;;;;11.05;6.70;;;;;;;23.06;60.69;98646.92;1766840;81;20991;-82
2022/07/27 05:28:34;;;;;;;17.07;6.72;;;;;;;23.14;60.63;98651.09;1771999;80;21010;-81
2022/07/27 05:31:01;;;;;;;14.95;7.50;;;;;;;23.23;60.06;98650.30;1765147;80;21006;-82
2022/07/27 05:33:28;;;;;;;16.20;7.15;;;;;;;23.34;60.86;98651.22;1754986;80;21522;-82
2022/07/27 05:35:56;;;;;;;13.93;7.37;;;;;;;23.42;59.87;98649.58;1768817;80;21003;-82
2022/07/27 05:38:23;;;;;;;15.05;6.47;;;;;;;23.50;59.91;98653.41;1771041;80;20971;-82
2022/07/27 05:40:50;;;;;;;12.70;6.97;;;;;;;23.56;59.79;98650.22;1769060;80;21102;-82
2022/07/27 05:43:16;;;;;;;11.15;6.55;;;;;;;23.62;59.63;98638.59;1732683;80;20999;-81
2022/07/27 05:45:43;;;;;;;16.80;7.17;;;;;;;23.70;59.17;98643.73;1776906;80;21054;-80
2022/07/27 05:48:10;;;;;;;15.40;6.50;;;;;;;23.81;59.31;98642.32;1763399;81;20987;-81
2022/07/27 05:50:36;;;;;;;13.28;6.55;;;;;;;23.91;59.55;98641.87;1776151;80;21111;-80
2022/07/27 05:53:03;;;;;;;13.45;6.37;;;;;;;24.00;59.04;98641.07;1753345;81;21018;-80
2022/07/27 05:55:29;;;;;;;12.00;6.90;;;;;;;24.06;58.98;98646.83;1771321;80;21467;-81
2022/07/27 05:57:56;;;;;;;10.00;6.37;;;;;;;24.12;58.89;98645.79;1757282;80;21039;-83
2022/07/27 06:00:23;;;;;;;14.63;7.75;;;;;;;24.14;59.18;98639.02;1769666;80;21547;-82
2022/07/27 06:02:50;;;;;;;10.35;6.78;;;;;;;24.26;58.87;98647.72;1761743;80;21116;-81
2022/07/27 06:05:17;;;;;;;14.10;6.95;;;;;;;24.27;58.86;98642.74;1757368;80;21049;-83
2022/07/27 06:07:59;;;;;;;13.60;6.67;;;;;;;24.26;58.93;98635.27;1771398;80;21022;-83
2022/07/27 06:10:28;;;;;;;17.12;6.70;;;;;;;24.32;58.88;98649.33;1748546;80;21711;-80
2022/07/27 06:12:55;;;;;;;11.55;6.58;;;;;;;24.34;58.83;98643.39;1749110;80;21110;-81
2022/07/27 06:15:23;;;;;;;10.88;6.28;;;;;;;24.34;58.76;98642.06;1752392;80;21052;-81
2022/07/27 06:17:52;;;;;;;15.80;7.50;;;;;;;24.42;58.45;98650.68;1757898;80;21514;-83
2022/07/27 06:20:20;;;;;;;12.70;6.37;;;;;;;24.46;58.88;98650.76;1754407;80;20993;-80
2022/07/27 06:22:58;;;;;;;10.60;6.60;;;;;;;24.51;58.73;98645.05;1751971;80;21089;-83
2022/07/27 06:25:26;;;;;;;14.40;7.53;;;;;;;24.56;58.39;98642.83;1749473;80;21029;-81
2022/07/27 06:27:52;;;;;;;11.65;6.28;;;;;;;24.66;58.50;98640.19;1762610;80;21016;-85
2022/07/27 06:30:21;;;;;;;11.38;6.65;;;;;;;24.76;58.29;98645.84;1752764;81;21479;-83
2022/07/27 06:32:48;;;;;;;10.48;7.25;;;;;;;24.83;58.07;98640.83;1761113;80;21056;-82
2022/07/27 06:35:15;;;;;;;13.15;7.00;;;;;;;24.91;57.73;98642.28;1748026;81;20967;-82
2022/07/27 06:37:47;;;;;;;10.35;6.60;;;;;;;24.95;57.68;98638.86;1753855;80;21405;-82
2022/07/27 06:40:13;;;;;;;10.75;6.37;;;;;;;25.02;57.61;98642.62;1744389;81;21013;-82
2022/07/27 06:42:41;;;;;;;10.82;6.50;;;;;;;25.06;57.34;98640.52;1758634;80;21061;-83
2022/07/27 06:45:08;;;;;;;13.05;6.75;;;;;;;25.11;57.09;98635.13;1746074;80;21014;-82
2022/07/27 06:47:36;;;;;;;13.48;6.58;;;;;;;25.20;56.87;98633.42;1754090;80;21102;-82
2022/07/27 06:50:05;;;;;;;12.28;6.75;;;;;;;25.30;56.69;98638.26;1760037;80;21562;-83
2022/07/27 06:52:32;;;;;;;12.50;6.40;;;;;;;25.36;56.63;98632.36;1761912;80;21019;-82
2022/07/27 06:54:59;;;;;;;15.55;6.95;;;;;;;25.44;56.10;98630.81;1744721;80;21058;-82
2022/07/27 06:57:26;;;;;;;9.03;6.47;;;;;;;25.54;55.69;98636.44;1750498;80;21085;-81
2022/07/27 06:59:53;;;;;;;10.65;6.42;;;;;;;25.59;55.54;98630.20;1756522;80;21399;-82
2022/07/27 07:02:19;;;;;;;12.90;6.83;;;;;;;25.65;55.37;98631.45;1756714;80;21070;-81
2022/07/27 07:04:46;;;;;;;9.95;6.00;;;;;;;25.74;55.15;98627.06;1755476;80;21074;-81
2022/07/27 07:07:12;;;;;;;10.38;6.12;;;;;;;25.76;54.59;98623.76;1713128;82;21010;-82
2022/07/27 07:09:39;;;;;;;10.32;6.28;;;;;;;25.83;54.65;98625.36;1728643;82;21579;-83
2022/07/27 07:12:06;;;;;;;13.13;6.53;;;;;;;25.92;54.43;98616.50;1711739;82;21045;-81
2022/07/27 07:14:33;;;;;;;11.70;6.50;;;;;;;25.94;54.42;98618.05;1714270;82;21046;-81
2022/07/27 07:17:00;;;;;;;11.40;6.37;;;;;;;26.02;54.00;98616.45;1695756;84;21029;-83
2022/07/27 07:19:27;;;;;;;8.30;6.00;;;;;;;26.08;53.86;98619.85;1688966;83;21020;-82
2022/07/27 07:21:54;;;;;;;9.05;5.72;;;;;;;26.17;53.62;98609.14;1701618;83;21030;-83
2022/07/27 07:24:21;;;;;;;8.85;5.92;;;;;;;26.25;53.14;98607.06;1707708;83;21039;-82
2022/07/27 07:26:47;;;;;;;12.10;6.42;;;;;;;26.37;53.06;98605.85;1704476;83;21529;-81
2022/07/27 07:29:15;;;;;;;9.78;6.00;;;;;;;26.45;52.83;98604.27;1710176;82;20961;-81
2022/07/27 07:31:42;;;;;;;11.63;6.28;;;;;;;26.55;52.67;98609.86;1700921;82;20983;-86
2022/07/27 07:34:08;;;;;;;7.67;5.37;;;;;;;26.64;52.40;98605.96;1705388;83;21053;-85
2022/07/27 07:36:35;;;;;;;12.45;6.03;;;;;;;26.65;52.29;98611.14;1706038;82;21082;-85
2022/07/27 07:39:01;;;;;;;9.23;6.00;;;;;;;26.73;52.33;98609.05;1707177;83;21096;-82
2022/07/27 07:41:28;;;;;;;10.15;5.83;;;;;;;26.78;52.05;98614.27;1706371;83;21324;-84
2022/07/27 07:43:55;;;;;;;8.85;5.95;;;;;;;26.86;51.48;98620.65;1701832;83;20986;-83
2022/07/27 07:46:21;;;;;;;8.68;5.90;;;;;;;26.89;51.53;98603.02;1706469;83;21587;-84
2022/07/27 07:48:48;;;;;;;11.55;6.25;;;;;;;26.88;51.61;98610.19;1707263;83;20974;-84
2022/07/27 07:51:14;;;;;;;10.15;6.83;;;;;;;26.97;51.29;98611.91;1708547;83;21095;-85
2022/07/27 07:53:41;;;;;;;9.48;5.97;;;;;;;27.01;51.30;98604.44;1667739;84;21600;-84
2022/07/27 07:56:08;;;;;;;9.10;6.20;;;;;;;27.06;51.16;98604.83;1700248;83;21309;-88
2022/07/27 07:58:34;;;;;;;9.95;5.70;;;;;;;27.08;50.55;98599.31;1692849;83;21323;-85
2022/07/27 08:01:01;;;;;;;9.83;6.42;;;;;;;27.07;50.82;98601.66;1699265;83;21090;-85
2022/07/27 08:03:27;;;;;;;11.43;5.72;;;;;;;27.14;50.69;98594.20;1695376;83;21067;-83
2022/07/27 08:05:54;;;;;;;10.18;6.30;;;;;;;27.30;50.46;98592.17;1700463;83;21066;-86
2022/07/27 08:08:21;;;;;;;9.10;6.65;;;;;;;27.45;50.08;98594.25;1708291;83;21078;-82
2022/07/27 08:10:47;;;;;;;8.00;5.80;;;;;;;27.51;49.88;98597.11;1701401;83;21070;-83
2022/07/27 08:13:14;;;;;;;8.85;5.62;;;;;;;27.64;49.74;98591.86;1696814;83;21046;-85
2022/07/27 08:15:41;;;;;;;12.13;5.85;;;;;;;27.72;49.21;98594.56;1704614;83;21050;-85
2022/07/27 08:18:08;;;;;;;7.80;5.25;;;;;;;27.76;48.51;98593.24;1709425;82;21123;-84
2022/07/27 08:20:35;;;;;;;10.43;5.67;;;;;;;27.85;48.23;98596.27;1746436;80;21020;-84
2022/07/27 08:23:02;;;;;;;9.38;5.45;;;;;;;27.95;48.21;98593.02;1752011;80;21053;-83
2022/07/27 08:25:29;;;;;;;10.13;5.37;;;;;;;27.98;47.59;98602.54;1747456;80;21058;-83
2022/07/27 08:27:57;;;;;;;8.20;6.05;;;;;;;27.99;47.34;98598.85;1754390;80;20999;-83
2022/07/27 08:30:24;;;;;;;9.28;5.17;;;;;;;28.06;47.51;98600.40;1691856;84;21589;-83
2022/07/27 08:32:58;;;;;;;11.93;5.37;;;;;;;28.18;46.89;98599.09;1724144;82;21133;-83
2022/07/27 08:35:27;;;;;;;9.05;5.30;;;;;;;28.27;46.89;98594.59;1713127;83;21510;-83
2022/07/27 08:37:56;;;;;;;10.10;5.40;;;;;;;28.39;46.48;98594.61;1756835;80;21098;-84
2022/07/27 08:40:24;;;;;;;11.28;5.17;;;;;;;28.48;45.79;98591.47;1748816;80;21026;-82
2022/07/27 08:42:50;;;;;;;8.05;5.25;;;;;;;28.58;45.20;98596.69;1749419;80;21186;-83
2022/07/27 08:45:19;;;;;;;8.75;5.30;;;;;;;28.58;45.27;98594.84;1749042;80;21016;-83
2022/07/27 08:47:46;;;;;;;12.13;5.85;;;;;;;28.58;45.14;98597.52;1742716;80;21149;-81
2022/07/27 08:50:29;;;;;;;12.03;5.65;;;;;;;28.62;45.18;98596.69;1749971;80;20950;-83
2022/07/27 08:53:03;;;;;;;9.25;5.87;;;;;;;28.69;44.83;98593.67;1738012;80;21020;-82
2022/07/27 08:55:36;;;;;;;8.03;5.10;;;;;;;28.74;44.85;98592.67;1755180;80;21019;-81
2022/07/27 08:58:04;;;;;;;9.38;5.50;;;;;;;28.81;45.07;98591.02;1740374;80;21021;-83
2022/07/27 09:00:32;;;;;;;11.20;5.58;;;;;;;28.80;44.67;98585.32;1755434;80;21018;-82
2022/07/27 09:02:59;;;;;;;11.90;6.00;;;;;;;28.90;44.66;98598.02;1749762;81;21003;-84
2022/07/27 09:05:26;;;;;;;7.90;5.12;;;;;;;28.96;44.48;98597.85;1750723;80;21330;-84
2022/07/27 09:07:54;;;;;;;8.48;5.15;;;;;;;28.98;43.02;98597.19;1740471;81;21070;-82
2022/07/27 09:10:33;;;;;;;7.70;5.53;;;;;;;29.03;43.76;98585.97;1755880;80;20966;-80
2022/07/27 09:13:02;;;;;;;11.10;5.53;;;;;;;29.03;43.42;98594.85;1753855;81;21614;-83
2022/07/27 09:15:28;;;;;;;10.32;5.60;;;;;;;29.07;43.27;98581.47;1754612;80;21064;-83
2022/07/27 09:17:55;;;;;;;8.35;5.15;;;;;;;29.15;43.36;98588.17;1735733;80;21683;-84
2022/07/27 09:20:22;;;;;;;7.85;5.55;;;;;;;29.25;43.16;98583.14;1756293;80;21002;-84
2022/07/27 09:22:55;;;;;;;11.12;6.08;;;;;;;29.32;42.76;98594.31;1709145;82;21026;-84
2022/07/27 09:25:32;;;;;;;10.63;5.45;;;;;;;29.30;41.70;98584.79;1707076;83;21083;-82
2022/07/27 09:28:00;;;;;;;10.15;4.87;;;;;;;29.40;42.68;98584.60;1700594;83;21028;-84
2022/07/27 09:30:26;;;;;;;8.20;5.03;;;;;;;29.62;41.81;98583.02;1677457;83;21238;-83
2022/07/27 09:33:01;;;;;;;10.18;5.17;;;;;;;29.59;41.04;98595.44;1700993;83;21353;-81
2022/07/27 09:35:34;;;;;;;8.15;4.78;;;;;;;29.66;41.13;98593.72;1701298;83;21117;-83
2022/07/27 09:38:21;;;;;;;;;;;;;;;29.74;40.45;98584.34;1712026;82;21083;-83
2022/07/27 09:41:01;;;;;;;9.38;5.20;;;;;;;29.79;40.75;98582.50;1705595;82;20146;-84
2022/07/27 09:43:28;;;;;;;7.47;4.97;;;;;;;29.85;40.10;98592.52;1708584;82;21038;-85
2022/07/27 09:45:55;;;;;;;8.53;5.03;;;;;;;29.89;39.05;98592.50;1700279;82;21034;-81
2022/07/27 09:48:25;;;;;;;8.50;4.50;;;;;;;29.94;39.30;98596.81;1705043;82;21003;-84
2022/07/27 09:51:05;;;;;;;7.95;5.00;;;;;;;30.11;39.23;98600.27;1694941;83;21038;-83
2022/07/27 09:56:15;;;;;;;7.62;4.78;;;;;;;30.11;38.98;98597.06;1727938;81;21529;-83
2022/07/27 09:58:48;;;;;;;6.67;4.53;;;;;;;30.13;39.07;98584.33;1738697;82;20985;-84
2022/07/27 10:01:22;;;;;;;8.15;4.72;;;;;;;30.07;38.97;98586.88;1727059;82;21044;-81
2022/07/27 10:03:53;;;;;;;7.97;4.70;;;;;;;30.16;38.67;98593.84;1729020;82;21095;-82
2022/07/27 10:06:21;;;;;;;9.00;5.08;;;;;;;30.26;37.82;98582.91;1733466;81;21083;-84
2022/07/27 10:08:51;;;;;;;7.85;5.17;;;;;;;30.31;38.04;98589.44;1739732;81;21527;-83
2022/07/27 10:11:19;;;;;;;9.55;4.72;;;;;;;30.33;38.28;98578.55;1697475;81;21540;-83
2022/07/27 10:13:48;;;;;;;8.10;4.60;;;;;;;30.44;37.61;98588.87;1744332;81;21518;-82
2022/07/27 10:16:18;;;;;;;9.23;4.83;;;;;;;30.51;37.73;98581.76;1721111;81;21048;-85
2022/07/27 10:19:14;;;;;;;6.22;4.47;;;;;;;30.58;37.33;98579.22;1739923;81;24821;-82
2022/07/27 10:21:45;;;;;;;7.47;5.12;;;;;;;30.69;36.60;98572.06;1730032;81;21045;-83
2022/07/27 10:24:27;;;;;;;6.15;4.28;;;;;;;30.82;35.53;98578.17;1727322;81;21669;-83
2022/07/27 10:26:55;;;;;;;10.43;4.42;;;;;;;30.80;34.13;98572.16;1737991;81;21026;-82
2022/07/27 10:29:23;;;;;;;8.85;4.40;;;;;;;30.89;34.91;98571.08;1735204;81;21055;-84
2022/07/27 10:31:58;;;;;;;9.20;4.65;;;;;;;30.95;33.26;98565.50;1722860;81;21090;-85
2022/07/27 10:34:40;;;;;;;7.67;3.52;;;;;;;31.07;33.51;98568.58;1724223;81;21488;-83
2022/07/27 10:37:15;;;;;;;4.87;3.33;;;;;;;31.12;28.26;98572.39;1736176;82;21053;-85
2022/07/27 10:39:47;;;;;;;5.00;3.42;;;;;;;31.29;29.40;98573.55;1717216;82;21047;-85
2022/07/27 10:42:21;;;;;;;9.17;3.53;;;;;;;31.48;27.03;98577.06;1731894;81;21017;-86
2022/07/27 10:45:00;;;;;;;5.12;3.35;;;;;;;31.48;27.03;98577.06;1725740;81;21558;-84
2022/07/27 10:47:32;;;;;;;5.17;3.05;;;;;;;31.53;28.48;98565.75;1728883;81;21023;-82
2022/07/27 10:50:24;;;;;;;6.10;2.80;;;;;;;31.54;24.96;98565.27;1750365;80;21467;-85
2022/07/27 10:53:00;;;;;;;;;;;;;;;31.61;25.84;98562.14;1726331;82;21051;-84
2022/07/27 10:55:35;;;;;;;7.03;3.65;;;;;;;31.73;26.57;98561.16;1733559;81;20121;-83
2022/07/27 10:58:22;;;;;;;6.20;3.50;;;;;;;31.75;26.95;98569.34;1741657;82;21042;-82
2022/07/27 11:00:55;;;;;;;6.97;3.90;;;;;;;31.75;27.33;98562.63;1745285;81;20959;-83
2022/07/27 11:03:32;;;;;;;6.00;3.30;;;;;;;31.78;27.38;98548.83;1753757;82;21057;-84
2022/07/27 11:06:07;;;;;;;4.70;2.92;;;;;;;31.82;24.39;98568.93;1735212;82;21618;-83
2022/07/27 11:08:41;;;;;;;9.55;3.10;;;;;;;31.81;25.35;98562.39;1748953;80;21019;-84
2022/07/27 11:11:16;;;;;;;5.28;3.35;;;;;;;31.89;25.80;98551.05;1739921;81;20978;-82
2022/07/27 11:13:45;;;;;;;8.30;3.12;;;;;;;31.88;25.59;98556.60;1724020;82;21134;-84
2022/07/27 11:16:16;;;;;;;6.35;3.30;;;;;;;31.96;25.75;98552.45;1752512;80;21034;-84
2022/07/27 11:19:02;;;;;;;6.92;3.92;;;;;;;32.05;26.37;98555.39;1753805;80;21131;-84
2022/07/27 11:21:38;;;;;;;6.55;3.85;;;;;;;32.03;26.86;98555.23;1744069;82;21743;-82
2022/07/27 11:24:17;;;;;;;8.63;3.27;;;;;;;31.94;27.01;98557.70;1726324;82;21035;-84
2022/07/27 11:26:48;;;;;;;6.20;3.87;;;;;;;31.96;26.78;98558.34;1746883;81;21098;-83
2022/07/27 11:29:18;;;;;;;7.42;4.20;;;;;;;32.00;26.68;98563.18;1749137;82;21051;-84
2022/07/27 11:31:47;;;;;;;5.45;3.35;;;;;;;32.10;27.04;98558.84;1731346;82;21009;-84
2022/07/27 11:34:16;;;;;;;5.12;3.10;;;;;;;32.22;25.96;98558.66;1750026;82;21642;-83
2022/07/27 11:36:48;;;;;;;9.60;4.00;;;;;;;32.22;25.36;98556.49;1743929;81;20997;-82
2022/07/27 11:39:25;;;;;;;6.75;3.52;;;;;;;32.21;25.90;98566.91;1750730;81;21033;-83